sensor_id;sensor_type;location;lat;lon;timestamp;P1;durP1;ratioP1;P2;durP2;ratioP2
819;SDS011;392;48.838;2.322;2022-12-29T00:00:06;2.23;;;1.10;;
819;SDS011;392;48.838;2.322;2022-12-29T00:02:39;1.80;;;1.20;;
819;SDS011;392;48.838;2.322;2022-12-29T00:05:07;1.33;;;1.17;;
819;SDS011;392;48.838;2.322;2022-12-29T00:07:35;2.57;;;1.03;;
819;SDS011;392;48.838;2.322;2022-12-29T00:10:03;3.37;;;1.67;;
819;SDS011;392;48.838;2.322;2022-12-29T00:12:31;1.23;;;1.13;;
819;SDS011;392;48.838;2.322;2022-12-29T00:15:14;1.80;;;1.70;;
819;SDS011;392;48.838;2.322;2022-12-29T00:17:59;2.93;;;1.73;;
819;SDS011;392;48.838;2.322;2022-12-29T00:20:26;3.37;;;1.20;;
819;SDS011;392;48.838;2.322;2022-12-29T00:23:12;1.93;;;1.57;;
819;SDS011;392;48.838;2.322;2022-12-29T00:25:57;2.27;;;1.70;;
819;SDS011;392;48.838;2.322;2022-12-29T00:28:41;2.40;;;1.70;;
819;SDS011;392;48.838;2.322;2022-12-29T00:31:28;1.90;;;1.70;;
819;SDS011;392;48.838;2.322;2022-12-29T00:34:13;2.80;;;1.60;;
819;SDS011;392;48.838;2.322;2022-12-29T00:36:58;1.90;;;1.70;;
819;SDS011;392;48.838;2.322;2022-12-29T00:39:26;1.93;;;1.57;;
819;SDS011;392;48.838;2.322;2022-12-29T00:42:11;2.60;;;1.87;;
819;SDS011;392;48.838;2.322;2022-12-29T00:44:56;2.07;;;1.83;;
819;SDS011;392;48.838;2.322;2022-12-29T00:47:25;1.70;;;1.60;;
819;SDS011;392;48.838;2.322;2022-12-29T00:49:52;2.23;;;2.03;;
819;SDS011;392;48.838;2.322;2022-12-29T00:52:18;2.30;;;1.70;;
819;SDS011;392;48.838;2.322;2022-12-29T00:54:46;2.37;;;2.10;;
819;SDS011;392;48.838;2.322;2022-12-29T00:57:13;3.00;;;2.33;;
819;SDS011;392;48.838;2.322;2022-12-29T00:59:41;2.70;;;2.33;;
819;SDS011;392;48.838;2.322;2022-12-29T01:02:09;2.60;;;1.80;;
819;SDS011;392;48.838;2.322;2022-12-29T01:04:38;2.40;;;1.80;;
819;SDS011;392;48.838;2.322;2022-12-29T01:07:06;2.67;;;1.47;;
819;SDS011;392;48.838;2.322;2022-12-29T01:09:36;1.80;;;1.70;;
819;SDS011;392;48.838;2.322;2022-12-29T01:12:21;3.50;;;1.70;;
819;SDS011;392;48.838;2.322;2022-12-29T01:15:03;2.30;;;1.70;;
819;SDS011;392;48.838;2.322;2022-12-29T01:17:32;2.90;;;1.67;;
819;SDS011;392;48.838;2.322;2022-12-29T01:20:01;3.27;;;1.67;;
819;SDS011;392;48.838;2.322;2022-12-29T01:22:30;2.30;;;2.10;;
819;SDS011;392;48.838;2.322;2022-12-29T01:24:57;2.00;;;1.80;;
819;SDS011;392;48.838;2.322;2022-12-29T01:27:25;2.77;;;1.90;;
819;SDS011;392;48.838;2.322;2022-12-29T01:29:53;4.47;;;2.20;;
819;SDS011;392;48.838;2.322;2022-12-29T01:32:20;3.03;;;2.03;;
819;SDS011;392;48.838;2.322;2022-12-29T01:34:48;3.23;;;2.00;;
819;SDS011;392;48.838;2.322;2022-12-29T01:37:17;3.13;;;2.00;;
819;SDS011;392;48.838;2.322;2022-12-29T01:39:44;2.80;;;1.77;;
819;SDS011;392;48.838;2.322;2022-12-29T01:42:12;2.40;;;1.50;;
819;SDS011;392;48.838;2.322;2022-12-29T01:44:49;1.97;;;1.30;;
819;SDS011;392;48.838;2.322;2022-12-29T01:47:27;6.10;;;1.73;;
819;SDS011;392;48.838;2.322;2022-12-29T01:50:03;3.00;;;1.23;;
819;SDS011;392;48.838;2.322;2022-12-29T01:52:36;2.23;;;1.20;;
819;SDS011;392;48.838;2.322;2022-12-29T01:55:09;1.20;;;1.10;;
819;SDS011;392;48.838;2.322;2022-12-29T01:57:38;1.30;;;0.80;;
819;SDS011;392;48.838;2.322;2022-12-29T02:00:11;0.93;;;0.83;;
819;SDS011;392;48.838;2.322;2022-12-29T02:02:41;0.70;;;0.70;;
819;SDS011;392;48.838;2.322;2022-12-29T02:05:14;1.60;;;0.73;;
819;SDS011;392;48.838;2.322;2022-12-29T02:07:51;1.23;;;0.67;;
819;SDS011;392;48.838;2.322;2022-12-29T02:10:20;1.03;;;0.50;;
819;SDS011;392;48.838;2.322;2022-12-29T02:12:51;2.77;;;0.80;;
819;SDS011;392;48.838;2.322;2022-12-29T02:15:20;1.00;;;0.70;;
819;SDS011;392;48.838;2.322;2022-12-29T02:18:02;1.00;;;0.43;;
819;SDS011;392;48.838;2.322;2022-12-29T02:30:37;1.10;;;0.60;;
819;SDS011;392;48.838;2.322;2022-12-29T02:33:13;3.20;;;1.23;;
819;SDS011;392;48.838;2.322;2022-12-29T02:35:54;1.07;;;0.53;;
819;SDS011;392;48.838;2.322;2022-12-29T02:38:33;1.93;;;0.67;;
819;SDS011;392;48.838;2.322;2022-12-29T02:41:17;2.00;;;0.60;;
819;SDS011;392;48.838;2.322;2022-12-29T02:43:50;1.17;;;0.40;;
819;SDS011;392;48.838;2.322;2022-12-29T02:46:26;1.13;;;0.60;;
819;SDS011;392;48.838;2.322;2022-12-29T02:49:03;2.10;;;1.03;;
819;SDS011;392;48.838;2.322;2022-12-29T02:51:41;3.37;;;0.70;;
819;SDS011;392;48.838;2.322;2022-12-29T02:54:16;1.23;;;0.70;;
819;SDS011;392;48.838;2.322;2022-12-29T02:57:08;0.70;;;0.70;;
819;SDS011;392;48.838;2.322;2022-12-29T02:59:41;1.37;;;0.40;;
819;SDS011;392;48.838;2.322;2022-12-29T03:02:27;2.43;;;0.60;;
819;SDS011;392;48.838;2.322;2022-12-29T03:08:11;1.07;;;0.50;;
819;SDS011;392;48.838;2.322;2022-12-29T03:10:49;2.77;;;0.70;;
819;SDS011;392;48.838;2.322;2022-12-29T03:13:26;2.10;;;0.70;;
819;SDS011;392;48.838;2.322;2022-12-29T03:16:20;2.43;;;0.80;;
819;SDS011;392;48.838;2.322;2022-12-29T03:18:57;2.03;;;0.77;;
819;SDS011;392;48.838;2.322;2022-12-29T03:21:31;2.10;;;0.73;;
819;SDS011;392;48.838;2.322;2022-12-29T03:24:22;1.53;;;0.70;;
819;SDS011;392;48.838;2.322;2022-12-29T03:26:54;3.67;;;0.77;;
819;SDS011;392;48.838;2.322;2022-12-29T03:29:29;1.33;;;0.70;;
819;SDS011;392;48.838;2.322;2022-12-29T03:32:01;3.20;;;0.70;;
819;SDS011;392;48.838;2.322;2022-12-29T03:34:32;1.67;;;0.80;;
819;SDS011;392;48.838;2.322;2022-12-29T03:37:02;1.77;;;0.83;;
819;SDS011;392;48.838;2.322;2022-12-29T03:39:36;1.70;;;0.70;;
819;SDS011;392;48.838;2.322;2022-12-29T03:42:05;1.47;;;0.73;;
819;SDS011;392;48.838;2.322;2022-12-29T03:44:38;1.53;;;0.63;;
819;SDS011;392;48.838;2.322;2022-12-29T03:47:10;2.53;;;1.10;;
819;SDS011;392;48.838;2.322;2022-12-29T03:49:41;1.77;;;0.83;;
819;SDS011;392;48.838;2.322;2022-12-29T03:52:08;2.00;;;0.50;;
819;SDS011;392;48.838;2.322;2022-12-29T03:54:41;1.60;;;0.90;;
819;SDS011;392;48.838;2.322;2022-12-29T03:57:09;1.70;;;0.70;;
819;SDS011;392;48.838;2.322;2022-12-29T03:59:51;6.00;;;1.77;;
819;SDS011;392;48.838;2.322;2022-12-29T04:02:18;2.47;;;0.70;;
819;SDS011;392;48.838;2.322;2022-12-29T04:04:47;3.60;;;0.83;;
819;SDS011;392;48.838;2.322;2022-12-29T04:07:15;1.07;;;0.90;;
819;SDS011;392;48.838;2.322;2022-12-29T04:09:43;1.00;;;0.70;;
819;SDS011;392;48.838;2.322;2022-12-29T04:12:16;2.27;;;0.83;;
819;SDS011;392;48.838;2.322;2022-12-29T04:14:44;3.63;;;1.20;;
819;SDS011;392;48.838;2.322;2022-12-29T04:17:11;2.90;;;0.80;;
819;SDS011;392;48.838;2.322;2022-12-29T04:19:40;1.83;;;0.80;;
819;SDS011;392;48.838;2.322;2022-12-29T04:22:10;3.13;;;1.00;;
819;SDS011;392;48.838;2.322;2022-12-29T04:24:38;2.03;;;0.80;;
819;SDS011;392;48.838;2.322;2022-12-29T04:27:09;4.23;;;1.07;;
819;SDS011;392;48.838;2.322;2022-12-29T04:29:39;4.20;;;1.37;;
819;SDS011;392;48.838;2.322;2022-12-29T04:32:06;2.63;;;0.67;;
819;SDS011;392;48.838;2.322;2022-12-29T04:34:38;1.70;;;0.70;;
819;SDS011;392;48.838;2.322;2022-12-29T04:37:05;1.23;;;0.93;;
819;SDS011;392;48.838;2.322;2022-12-29T04:39:34;3.67;;;1.37;;
819;SDS011;392;48.838;2.322;2022-12-29T04:42:02;1.30;;;0.70;;
819;SDS011;392;48.838;2.322;2022-12-29T04:44:31;1.20;;;0.70;;
819;SDS011;392;48.838;2.322;2022-12-29T04:47:18;2.40;;;0.77;;
819;SDS011;392;48.838;2.322;2022-12-29T04:50:12;1.63;;;0.90;;
819;SDS011;392;48.838;2.322;2022-12-29T04:52:43;1.60;;;0.87;;
819;SDS011;392;48.838;2.322;2022-12-29T04:55:13;2.60;;;0.80;;
819;SDS011;392;48.838;2.322;2022-12-29T04:57:41;2.50;;;0.80;;
819;SDS011;392;48.838;2.322;2022-12-29T05:00:12;2.53;;;0.83;;
819;SDS011;392;48.838;2.322;2022-12-29T05:02:41;1.67;;;0.80;;
819;SDS011;392;48.838;2.322;2022-12-29T05:05:08;1.10;;;0.97;;
819;SDS011;392;48.838;2.322;2022-12-29T05:07:40;3.47;;;0.70;;
819;SDS011;392;48.838;2.322;2022-12-29T05:10:08;2.90;;;0.97;;
819;SDS011;392;48.838;2.322;2022-12-29T05:12:38;2.50;;;1.17;;
819;SDS011;392;48.838;2.322;2022-12-29T05:15:07;1.87;;;0.80;;
819;SDS011;392;48.838;2.322;2022-12-29T05:17:37;2.00;;;0.73;;
819;SDS011;392;48.838;2.322;2022-12-29T05:20:06;2.33;;;0.97;;
819;SDS011;392;48.838;2.322;2022-12-29T05:22:36;2.20;;;1.20;;
819;SDS011;392;48.838;2.322;2022-12-29T05:25:04;1.77;;;0.87;;
819;SDS011;392;48.838;2.322;2022-12-29T05:27:42;9.23;;;1.13;;
819;SDS011;392;48.838;2.322;2022-12-29T05:30:19;2.63;;;1.17;;
819;SDS011;392;48.838;2.322;2022-12-29T05:32:47;3.17;;;1.23;;
819;SDS011;392;48.838;2.322;2022-12-29T05:35:14;3.80;;;1.20;;
819;SDS011;392;48.838;2.322;2022-12-29T05:37:42;1.57;;;1.13;;
819;SDS011;392;48.838;2.322;2022-12-29T05:40:09;3.67;;;1.20;;
819;SDS011;392;48.838;2.322;2022-12-29T05:42:38;3.97;;;1.47;;
819;SDS011;392;48.838;2.322;2022-12-29T05:45:17;2.60;;;1.00;;
819;SDS011;392;48.838;2.322;2022-12-29T05:48:12;3.10;;;1.47;;
819;SDS011;392;48.838;2.322;2022-12-29T05:51:11;2.60;;;0.90;;
819;SDS011;392;48.838;2.322;2022-12-29T05:53:45;6.20;;;1.17;;
819;SDS011;392;48.838;2.322;2022-12-29T05:56:14;4.23;;;1.83;;
819;SDS011;392;48.838;2.322;2022-12-29T05:58:43;3.37;;;1.37;;
819;SDS011;392;48.838;2.322;2022-12-29T06:01:12;2.20;;;1.37;;
819;SDS011;392;48.838;2.322;2022-12-29T06:03:40;5.10;;;1.10;;
819;SDS011;392;48.838;2.322;2022-12-29T06:06:07;2.33;;;1.40;;
819;SDS011;392;48.838;2.322;2022-12-29T06:08:35;3.83;;;1.30;;
819;SDS011;392;48.838;2.322;2022-12-29T06:11:03;5.50;;;1.07;;
819;SDS011;392;48.838;2.322;2022-12-29T06:13:31;2.50;;;1.20;;
819;SDS011;392;48.838;2.322;2022-12-29T06:15:59;2.03;;;1.63;;
819;SDS011;392;48.838;2.322;2022-12-29T06:18:28;5.30;;;1.10;;
819;SDS011;392;48.838;2.322;2022-12-29T06:20:58;6.17;;;1.60;;
819;SDS011;392;48.838;2.322;2022-12-29T06:23:27;2.40;;;1.10;;
819;SDS011;392;48.838;2.322;2022-12-29T06:25:54;1.57;;;1.03;;
819;SDS011;392;48.838;2.322;2022-12-29T06:28:22;2.03;;;1.10;;
819;SDS011;392;48.838;2.322;2022-12-29T06:30:50;4.40;;;1.60;;
819;SDS011;392;48.838;2.322;2022-12-29T06:33:17;3.87;;;1.47;;
819;SDS011;392;48.838;2.322;2022-12-29T06:35:46;4.03;;;1.57;;
819;SDS011;392;48.838;2.322;2022-12-29T06:38:14;2.40;;;1.10;;
819;SDS011;392;48.838;2.322;2022-12-29T06:40:41;3.43;;;1.30;;
819;SDS011;392;48.838;2.322;2022-12-29T06:43:16;3.83;;;1.77;;
819;SDS011;392;48.838;2.322;2022-12-29T06:46:01;2.53;;;1.67;;
819;SDS011;392;48.838;2.322;2022-12-29T06:48:29;5.90;;;1.33;;
819;SDS011;392;48.838;2.322;2022-12-29T06:50:57;3.73;;;1.47;;
819;SDS011;392;48.838;2.322;2022-12-29T06:53:25;5.70;;;1.30;;
819;SDS011;392;48.838;2.322;2022-12-29T06:55:52;4.73;;;1.20;;
819;SDS011;392;48.838;2.322;2022-12-29T06:58:21;2.40;;;1.70;;
819;SDS011;392;48.838;2.322;2022-12-29T07:00:49;2.80;;;1.30;;
819;SDS011;392;48.838;2.322;2022-12-29T07:03:16;4.03;;;1.30;;
819;SDS011;392;48.838;2.322;2022-12-29T07:05:43;7.07;;;1.50;;
819;SDS011;392;48.838;2.322;2022-12-29T07:08:12;4.30;;;1.13;;
819;SDS011;392;48.838;2.322;2022-12-29T07:10:39;5.20;;;1.10;;
819;SDS011;392;48.838;2.322;2022-12-29T07:13:07;4.00;;;1.30;;
819;SDS011;392;48.838;2.322;2022-12-29T07:15:35;6.00;;;1.97;;
819;SDS011;392;48.838;2.322;2022-12-29T07:18:03;4.40;;;1.37;;
819;SDS011;392;48.838;2.322;2022-12-29T07:20:31;3.23;;;1.30;;
819;SDS011;392;48.838;2.322;2022-12-29T07:22:59;3.63;;;1.70;;
819;SDS011;392;48.838;2.322;2022-12-29T07:25:27;3.90;;;1.50;;
819;SDS011;392;48.838;2.322;2022-12-29T07:27:55;3.50;;;1.20;;
819;SDS011;392;48.838;2.322;2022-12-29T07:30:22;5.90;;;1.50;;
819;SDS011;392;48.838;2.322;2022-12-29T07:32:49;5.30;;;1.33;;
819;SDS011;392;48.838;2.322;2022-12-29T07:35:17;2.67;;;1.47;;
819;SDS011;392;48.838;2.322;2022-12-29T07:37:44;6.47;;;1.30;;
819;SDS011;392;48.838;2.322;2022-12-29T07:40:12;2.37;;;1.30;;
819;SDS011;392;48.838;2.322;2022-12-29T07:42:41;4.87;;;1.80;;
819;SDS011;392;48.838;2.322;2022-12-29T07:45:08;6.77;;;1.60;;
819;SDS011;392;48.838;2.322;2022-12-29T07:48:02;4.03;;;1.70;;
819;SDS011;392;48.838;2.322;2022-12-29T07:50:32;3.00;;;1.17;;
819;SDS011;392;48.838;2.322;2022-12-29T07:53:00;4.30;;;1.17;;
819;SDS011;392;48.838;2.322;2022-12-29T07:55:28;5.20;;;2.00;;
819;SDS011;392;48.838;2.322;2022-12-29T07:57:57;2.83;;;1.27;;
819;SDS011;392;48.838;2.322;2022-12-29T08:00:24;5.27;;;1.30;;
819;SDS011;392;48.838;2.322;2022-12-29T08:02:51;4.83;;;2.07;;
819;SDS011;392;48.838;2.322;2022-12-29T08:05:19;4.17;;;1.80;;
819;SDS011;392;48.838;2.322;2022-12-29T08:07:46;5.23;;;1.80;;
819;SDS011;392;48.838;2.322;2022-12-29T08:10:14;5.07;;;2.20;;
819;SDS011;392;48.838;2.322;2022-12-29T08:12:42;5.10;;;2.13;;
819;SDS011;392;48.838;2.322;2022-12-29T08:15:11;6.47;;;2.30;;
819;SDS011;392;48.838;2.322;2022-12-29T08:17:38;5.60;;;2.03;;
819;SDS011;392;48.838;2.322;2022-12-29T08:20:06;6.97;;;2.43;;
819;SDS011;392;48.838;2.322;2022-12-29T08:22:35;4.67;;;1.50;;
819;SDS011;392;48.838;2.322;2022-12-29T08:25:03;5.07;;;2.10;;
819;SDS011;392;48.838;2.322;2022-12-29T08:27:31;4.50;;;1.30;;
819;SDS011;392;48.838;2.322;2022-12-29T08:29:58;7.27;;;2.67;;
819;SDS011;392;48.838;2.322;2022-12-29T08:32:27;7.50;;;2.03;;
819;SDS011;392;48.838;2.322;2022-12-29T08:34:54;4.83;;;1.80;;
819;SDS011;392;48.838;2.322;2022-12-29T08:37:21;4.60;;;1.73;;
819;SDS011;392;48.838;2.322;2022-12-29T08:39:49;5.30;;;1.67;;
819;SDS011;392;48.838;2.322;2022-12-29T08:42:16;8.10;;;2.17;;
819;SDS011;392;48.838;2.322;2022-12-29T08:44:43;5.13;;;1.50;;
819;SDS011;392;48.838;2.322;2022-12-29T08:47:11;5.43;;;1.83;;
819;SDS011;392;48.838;2.322;2022-12-29T08:49:40;4.70;;;1.60;;
819;SDS011;392;48.838;2.322;2022-12-29T08:52:07;6.53;;;1.73;;
819;SDS011;392;48.838;2.322;2022-12-29T08:54:34;7.33;;;2.17;;
819;SDS011;392;48.838;2.322;2022-12-29T08:57:02;6.20;;;2.00;;
819;SDS011;392;48.838;2.322;2022-12-29T08:59:36;7.20;;;2.10;;
819;SDS011;392;48.838;2.322;2022-12-29T09:02:03;3.30;;;1.50;;
819;SDS011;392;48.838;2.322;2022-12-29T09:04:31;6.23;;;1.60;;
819;SDS011;392;48.838;2.322;2022-12-29T09:07:00;7.03;;;2.13;;
819;SDS011;392;48.838;2.322;2022-12-29T09:09:27;6.87;;;2.17;;
819;SDS011;392;48.838;2.322;2022-12-29T09:11:54;6.93;;;2.00;;
819;SDS011;392;48.838;2.322;2022-12-29T09:14:21;5.50;;;2.10;;
819;SDS011;392;48.838;2.322;2022-12-29T09:16:50;8.10;;;2.53;;
819;SDS011;392;48.838;2.322;2022-12-29T09:19:35;4.70;;;1.70;;
819;SDS011;392;48.838;2.322;2022-12-29T09:22:04;8.27;;;1.80;;
819;SDS011;392;48.838;2.322;2022-12-29T09:24:32;4.93;;;1.80;;
819;SDS011;392;48.838;2.322;2022-12-29T09:26:59;5.37;;;1.67;;
819;SDS011;392;48.838;2.322;2022-12-29T09:29:26;7.50;;;1.70;;
819;SDS011;392;48.838;2.322;2022-12-29T09:31:54;7.10;;;2.20;;
819;SDS011;392;48.838;2.322;2022-12-29T09:34:21;6.20;;;2.00;;
819;SDS011;392;48.838;2.322;2022-12-29T09:36:48;4.13;;;1.60;;
819;SDS011;392;48.838;2.322;2022-12-29T09:39:17;8.77;;;2.13;;
819;SDS011;392;48.838;2.322;2022-12-29T09:41:46;7.77;;;1.60;;
819;SDS011;392;48.838;2.322;2022-12-29T09:44:20;8.17;;;2.00;;
819;SDS011;392;48.838;2.322;2022-12-29T09:46:55;7.23;;;2.40;;
819;SDS011;392;48.838;2.322;2022-12-29T09:49:26;5.00;;;1.73;;
819;SDS011;392;48.838;2.322;2022-12-29T09:52:00;9.60;;;2.43;;
819;SDS011;392;48.838;2.322;2022-12-29T09:54:36;6.60;;;1.60;;
819;SDS011;392;48.838;2.322;2022-12-29T09:57:13;5.27;;;2.10;;
819;SDS011;392;48.838;2.322;2022-12-29T09:59:44;6.60;;;1.90;;
819;SDS011;392;48.838;2.322;2022-12-29T10:02:22;3.93;;;1.57;;
819;SDS011;392;48.838;2.322;2022-12-29T10:04:57;6.57;;;2.47;;
819;SDS011;392;48.838;2.322;2022-12-29T10:07:28;5.33;;;1.93;;
819;SDS011;392;48.838;2.322;2022-12-29T10:10:17;3.23;;;1.73;;
819;SDS011;392;48.838;2.322;2022-12-29T10:12:58;5.53;;;2.00;;
819;SDS011;392;48.838;2.322;2022-12-29T10:15:46;6.00;;;2.27;;
819;SDS011;392;48.838;2.322;2022-12-29T10:18:26;6.20;;;1.70;;
819;SDS011;392;48.838;2.322;2022-12-29T10:21:22;4.13;;;1.87;;
819;SDS011;392;48.838;2.322;2022-12-29T10:23:57;5.27;;;2.10;;
819;SDS011;392;48.838;2.322;2022-12-29T10:26:31;9.50;;;2.83;;
819;SDS011;392;48.838;2.322;2022-12-29T10:29:05;4.57;;;1.90;;
819;SDS011;392;48.838;2.322;2022-12-29T10:31:35;4.37;;;2.00;;
819;SDS011;392;48.838;2.322;2022-12-29T10:34:10;5.90;;;2.10;;
819;SDS011;392;48.838;2.322;2022-12-29T10:36:48;6.90;;;1.97;;
819;SDS011;392;48.838;2.322;2022-12-29T10:39:19;5.20;;;2.33;;
819;SDS011;392;48.838;2.322;2022-12-29T10:41:57;4.63;;;2.13;;
819;SDS011;392;48.838;2.322;2022-12-29T10:44:35;6.73;;;2.20;;
819;SDS011;392;48.838;2.322;2022-12-29T10:47:03;4.10;;;1.80;;
819;SDS011;392;48.838;2.322;2022-12-29T10:49:35;5.60;;;1.90;;
819;SDS011;392;48.838;2.322;2022-12-29T10:52:08;7.10;;;2.73;;
819;SDS011;392;48.838;2.322;2022-12-29T10:54:38;7.70;;;2.03;;
819;SDS011;392;48.838;2.322;2022-12-29T10:57:13;6.97;;;2.63;;
819;SDS011;392;48.838;2.322;2022-12-29T10:59:51;6.27;;;1.93;;
819;SDS011;392;48.838;2.322;2022-12-29T11:02:23;7.10;;;2.13;;
819;SDS011;392;48.838;2.322;2022-12-29T11:05:06;9.00;;;2.67;;
819;SDS011;392;48.838;2.322;2022-12-29T11:07:42;5.27;;;2.60;;
819;SDS011;392;48.838;2.322;2022-12-29T11:10:17;6.20;;;1.80;;
819;SDS011;392;48.838;2.322;2022-12-29T11:12:56;8.53;;;2.40;;
819;SDS011;392;48.838;2.322;2022-12-29T11:15:25;9.23;;;1.80;;
819;SDS011;392;48.838;2.322;2022-12-29T11:17:53;7.90;;;2.50;;
819;SDS011;392;48.838;2.322;2022-12-29T11:20:31;6.23;;;2.37;;
819;SDS011;392;48.838;2.322;2022-12-29T11:23:05;10.70;;;2.90;;
819;SDS011;392;48.838;2.322;2022-12-29T11:28:46;5.17;;;2.27;;
819;SDS011;392;48.838;2.322;2022-12-29T11:31:20;8.67;;;2.60;;
819;SDS011;392;48.838;2.322;2022-12-29T11:33:48;5.70;;;3.10;;
819;SDS011;392;48.838;2.322;2022-12-29T11:36:16;5.70;;;2.10;;
819;SDS011;392;48.838;2.322;2022-12-29T11:38:48;8.43;;;2.47;;
819;SDS011;392;48.838;2.322;2022-12-29T11:41:21;8.77;;;2.40;;
819;SDS011;392;48.838;2.322;2022-12-29T11:43:52;5.67;;;2.37;;
819;SDS011;392;48.838;2.322;2022-12-29T11:46:23;6.23;;;3.17;;
819;SDS011;392;48.838;2.322;2022-12-29T11:48:53;8.27;;;2.30;;
819;SDS011;392;48.838;2.322;2022-12-29T11:51:25;6.17;;;2.30;;
819;SDS011;392;48.838;2.322;2022-12-29T11:53:55;7.47;;;2.20;;
819;SDS011;392;48.838;2.322;2022-12-29T11:56:32;5.93;;;2.23;;
819;SDS011;392;48.838;2.322;2022-12-29T11:59:34;6.53;;;2.50;;
819;SDS011;392;48.838;2.322;2022-12-29T12:05:10;5.60;;;2.10;;
819;SDS011;392;48.838;2.322;2022-12-29T12:07:49;5.50;;;2.40;;
819;SDS011;392;48.838;2.322;2022-12-29T12:10:24;7.33;;;1.47;;
819;SDS011;392;48.838;2.322;2022-12-29T12:12:59;5.93;;;1.60;;
819;SDS011;392;48.838;2.322;2022-12-29T12:15:36;6.83;;;2.30;;
819;SDS011;392;48.838;2.322;2022-12-29T12:18:08;6.10;;;2.40;;
819;SDS011;392;48.838;2.322;2022-12-29T12:20:45;7.30;;;4.03;;
819;SDS011;392;48.838;2.322;2022-12-29T12:23:19;5.67;;;2.73;;
819;SDS011;392;48.838;2.322;2022-12-29T12:25:59;6.00;;;2.33;;
819;SDS011;392;48.838;2.322;2022-12-29T12:28:36;7.53;;;2.30;;
819;SDS011;392;48.838;2.322;2022-12-29T12:31:15;6.13;;;2.17;;
819;SDS011;392;48.838;2.322;2022-12-29T12:33:52;8.30;;;2.07;;
819;SDS011;392;48.838;2.322;2022-12-29T12:39:27;5.97;;;2.47;;
819;SDS011;392;48.838;2.322;2022-12-29T12:42:08;7.40;;;2.90;;
819;SDS011;392;48.838;2.322;2022-12-29T12:44:50;4.83;;;2.07;;
819;SDS011;392;48.838;2.322;2022-12-29T12:47:35;7.03;;;3.07;;
819;SDS011;392;48.838;2.322;2022-12-29T12:50:32;6.50;;;2.20;;
819;SDS011;392;48.838;2.322;2022-12-29T12:53:19;7.33;;;3.10;;
819;SDS011;392;48.838;2.322;2022-12-29T12:56:16;6.20;;;2.43;;
819;SDS011;392;48.838;2.322;2022-12-29T12:59:02;7.27;;;3.20;;
819;SDS011;392;48.838;2.322;2022-12-29T13:01:42;3.67;;;2.17;;
819;SDS011;392;48.838;2.322;2022-12-29T13:04:24;5.53;;;2.00;;
819;SDS011;392;48.838;2.322;2022-12-29T13:07:17;4.20;;;1.93;;
819;SDS011;392;48.838;2.322;2022-12-29T13:09:59;6.37;;;1.83;;
819;SDS011;392;48.838;2.322;2022-12-29T13:12:45;5.40;;;1.57;;
819;SDS011;392;48.838;2.322;2022-12-29T13:15:26;5.27;;;2.27;;
819;SDS011;392;48.838;2.322;2022-12-29T13:18:07;4.77;;;2.43;;
819;SDS011;392;48.838;2.322;2022-12-29T13:20:47;5.23;;;1.97;;
819;SDS011;392;48.838;2.322;2022-12-29T13:23:23;3.90;;;1.63;;
819;SDS011;392;48.838;2.322;2022-12-29T13:25:59;5.80;;;2.23;;
819;SDS011;392;48.838;2.322;2022-12-29T13:28:37;4.10;;;1.87;;
819;SDS011;392;48.838;2.322;2022-12-29T13:31:19;7.20;;;2.40;;
819;SDS011;392;48.838;2.322;2022-12-29T13:33:56;6.43;;;2.53;;
819;SDS011;392;48.838;2.322;2022-12-29T13:36:35;6.47;;;1.87;;
819;SDS011;392;48.838;2.322;2022-12-29T13:39:10;8.40;;;2.40;;
819;SDS011;392;48.838;2.322;2022-12-29T13:41:43;7.70;;;2.00;;
819;SDS011;392;48.838;2.322;2022-12-29T13:44:16;12.90;;;2.40;;
819;SDS011;392;48.838;2.322;2022-12-29T13:46:47;2.70;;;1.47;;
819;SDS011;392;48.838;2.322;2022-12-29T13:49:16;3.20;;;1.73;;
819;SDS011;392;48.838;2.322;2022-12-29T13:51:49;6.30;;;2.50;;
819;SDS011;392;48.838;2.322;2022-12-29T13:54:24;5.17;;;3.70;;
819;SDS011;392;48.838;2.322;2022-12-29T13:57:05;7.33;;;3.37;;
819;SDS011;392;48.838;2.322;2022-12-29T13:59:38;9.57;;;3.20;;
819;SDS011;392;48.838;2.322;2022-12-29T14:02:17;6.00;;;3.50;;
819;SDS011;392;48.838;2.322;2022-12-29T14:04:57;9.30;;;2.33;;
819;SDS011;392;48.838;2.322;2022-12-29T14:07:28;5.30;;;2.97;;
819;SDS011;392;48.838;2.322;2022-12-29T14:09:56;6.07;;;2.13;;
819;SDS011;392;48.838;2.322;2022-12-29T14:12:27;6.63;;;2.30;;
819;SDS011;392;48.838;2.322;2022-12-29T14:15:02;6.60;;;2.23;;
819;SDS011;392;48.838;2.322;2022-12-29T14:17:58;5.53;;;2.10;;
819;SDS011;392;48.838;2.322;2022-12-29T14:20:31;4.00;;;1.77;;
819;SDS011;392;48.838;2.322;2022-12-29T14:23:15;6.60;;;2.60;;
819;SDS011;392;48.838;2.322;2022-12-29T14:26:00;4.10;;;2.07;;
819;SDS011;392;48.838;2.322;2022-12-29T14:28:42;5.47;;;1.93;;
819;SDS011;392;48.838;2.322;2022-12-29T14:37:17;4.60;;;2.00;;
819;SDS011;392;48.838;2.322;2022-12-29T14:40:03;4.07;;;1.70;;
819;SDS011;392;48.838;2.322;2022-12-29T14:42:33;4.90;;;1.47;;
819;SDS011;392;48.838;2.322;2022-12-29T14:45:02;5.50;;;1.70;;
819;SDS011;392;48.838;2.322;2022-12-29T14:47:35;4.23;;;1.93;;
819;SDS011;392;48.838;2.322;2022-12-29T14:50:07;5.60;;;1.50;;
819;SDS011;392;48.838;2.322;2022-12-29T14:52:43;4.13;;;2.10;;
819;SDS011;392;48.838;2.322;2022-12-29T14:55:30;7.70;;;2.40;;
819;SDS011;392;48.838;2.322;2022-12-29T14:58:05;4.10;;;1.60;;
819;SDS011;392;48.838;2.322;2022-12-29T15:00:40;5.60;;;1.53;;
819;SDS011;392;48.838;2.322;2022-12-29T15:03:12;10.23;;;1.73;;
819;SDS011;392;48.838;2.322;2022-12-29T15:05:47;3.63;;;1.80;;
819;SDS011;392;48.838;2.322;2022-12-29T15:08:18;3.83;;;1.80;;
819;SDS011;392;48.838;2.322;2022-12-29T15:10:52;5.50;;;2.00;;
819;SDS011;392;48.838;2.322;2022-12-29T15:13:32;3.33;;;1.70;;
819;SDS011;392;48.838;2.322;2022-12-29T15:16:01;6.23;;;2.00;;
819;SDS011;392;48.838;2.322;2022-12-29T15:18:30;5.53;;;1.80;;
819;SDS011;392;48.838;2.322;2022-12-29T15:20:59;7.63;;;1.70;;
819;SDS011;392;48.838;2.322;2022-12-29T15:23:29;3.20;;;1.90;;
819;SDS011;392;48.838;2.322;2022-12-29T15:25:59;4.63;;;2.50;;
819;SDS011;392;48.838;2.322;2022-12-29T15:28:36;6.13;;;2.27;;
819;SDS011;392;48.838;2.322;2022-12-29T15:31:10;4.47;;;1.97;;
819;SDS011;392;48.838;2.322;2022-12-29T15:33:41;5.20;;;2.60;;
819;SDS011;392;48.838;2.322;2022-12-29T15:36:14;5.20;;;2.50;;
819;SDS011;392;48.838;2.322;2022-12-29T15:38:45;6.00;;;5.40;;
819;SDS011;392;48.838;2.322;2022-12-29T15:41:22;4.17;;;2.17;;
819;SDS011;392;48.838;2.322;2022-12-29T15:44:00;3.27;;;1.90;;
819;SDS011;392;48.838;2.322;2022-12-29T15:46:37;7.07;;;2.40;;
819;SDS011;392;48.838;2.322;2022-12-29T15:49:05;5.10;;;1.60;;
819;SDS011;392;48.838;2.322;2022-12-29T15:51:35;4.10;;;2.10;;
819;SDS011;392;48.838;2.322;2022-12-29T15:54:05;4.43;;;2.77;;
819;SDS011;392;48.838;2.322;2022-12-29T15:56:43;4.40;;;1.90;;
819;SDS011;392;48.838;2.322;2022-12-29T15:59:21;3.47;;;1.73;;
819;SDS011;392;48.838;2.322;2022-12-29T16:01:51;6.73;;;2.53;;
819;SDS011;392;48.838;2.322;2022-12-29T16:04:20;8.20;;;4.30;;
819;SDS011;392;48.838;2.322;2022-12-29T16:06:53;2.80;;;2.00;;
819;SDS011;392;48.838;2.322;2022-12-29T16:09:29;4.60;;;1.70;;
819;SDS011;392;48.838;2.322;2022-12-29T16:12:00;4.43;;;2.10;;
819;SDS011;392;48.838;2.322;2022-12-29T16:14:32;5.80;;;2.47;;
819;SDS011;392;48.838;2.322;2022-12-29T16:17:09;4.87;;;2.40;;
819;SDS011;392;48.838;2.322;2022-12-29T16:19:47;4.13;;;2.20;;
819;SDS011;392;48.838;2.322;2022-12-29T16:22:25;6.80;;;2.60;;
819;SDS011;392;48.838;2.322;2022-12-29T16:24:56;6.20;;;2.20;;
819;SDS011;392;48.838;2.322;2022-12-29T16:27:32;4.03;;;2.00;;
819;SDS011;392;48.838;2.322;2022-12-29T16:30:04;6.60;;;2.17;;
819;SDS011;392;48.838;2.322;2022-12-29T16:32:44;4.30;;;2.20;;
819;SDS011;392;48.838;2.322;2022-12-29T16:35:16;7.27;;;2.50;;
819;SDS011;392;48.838;2.322;2022-12-29T16:37:46;4.63;;;2.13;;
819;SDS011;392;48.838;2.322;2022-12-29T16:43:00;4.80;;;2.63;;
819;SDS011;392;48.838;2.322;2022-12-29T16:48:48;6.03;;;2.80;;
819;SDS011;392;48.838;2.322;2022-12-29T16:51:20;7.00;;;3.27;;
819;SDS011;392;48.838;2.322;2022-12-29T16:53:56;11.63;;;6.93;;
819;SDS011;392;48.838;2.322;2022-12-29T16:56:24;6.23;;;3.03;;